createdAt,value
2019-05-19T00:00:20.666Z,26.67
2019-05-19T00:02:52.409Z,24.77
2019-05-19T00:05:26.479Z,27.20
2019-05-19T00:07:59.119Z,27.33
2019-05-19T00:10:31.013Z,27.57
2019-05-19T00:13:02.880Z,30.30
2019-05-19T00:15:38.273Z,30.33
2019-05-19T00:18:10.050Z,30.67
2019-05-19T00:20:43.478Z,30.17
2019-05-19T00:23:15.798Z,30.80
2019-05-19T00:25:48.450Z,32.50
2019-05-19T00:28:21.275Z,34.90
2019-05-19T00:30:52.864Z,32.50
2019-05-19T00:33:25.665Z,31.97
2019-05-19T00:35:57.718Z,33.07
2019-05-19T00:38:29.271Z,32.07
2019-05-19T00:41:02.274Z,33.07
2019-05-19T00:43:35.164Z,35.00
2019-05-19T00:46:06.582Z,32.43
2019-05-19T00:48:38.009Z,35.20
2019-05-19T00:51:10.105Z,30.30
2019-05-19T00:53:42.468Z,33.60
2019-05-19T00:56:15.377Z,35.07
2019-05-19T00:58:47.638Z,31.63
2019-05-19T01:01:20.410Z,37.60
2019-05-19T01:03:55.084Z,38.60
2019-05-19T01:06:27.478Z,32.00
2019-05-19T01:09:01.954Z,36.90
2019-05-19T01:11:35.607Z,33.47
2019-05-19T01:14:08.304Z,37.33
2019-05-19T01:16:39.842Z,34.20
2019-05-19T01:19:14.025Z,33.87
2019-05-19T01:21:48.090Z,38.10
2019-05-19T01:24:19.516Z,38.37
2019-05-19T01:26:50.862Z,36.47
2019-05-19T01:29:22.631Z,36.77
2019-05-19T01:31:55.404Z,36.67
2019-05-19T01:34:26.997Z,35.00
2019-05-19T01:37:00.535Z,34.43
2019-05-19T01:39:32.497Z,34.80
2019-05-19T01:42:05.215Z,29.67
2019-05-19T01:44:37.916Z,35.10
2019-05-19T01:47:11.954Z,34.43
2019-05-19T01:49:43.535Z,38.87
2019-05-19T01:52:15.854Z,33.60
2019-05-19T01:54:48.487Z,34.20
2019-05-19T01:57:21.325Z,32.57
2019-05-19T01:59:54.143Z,35.77
2019-05-19T02:02:27.050Z,38.13
2019-05-19T02:04:59.516Z,37.77
2019-05-19T02:07:31.399Z,31.93
2019-05-19T02:10:02.986Z,36.53
2019-05-19T02:12:36.617Z,33.53
2019-05-19T02:15:10.306Z,35.63
2019-05-19T02:17:42.553Z,32.57
2019-05-19T02:20:14.964Z,34.90
2019-05-19T02:22:45.970Z,33.77
2019-05-19T02:25:20.179Z,34.90
2019-05-19T02:27:52.953Z,29.83
2019-05-19T02:30:28.526Z,38.00
2019-05-19T02:33:00.974Z,32.80
2019-05-19T02:35:32.703Z,44.10
2019-05-19T02:38:04.589Z,44.93
2019-05-19T02:40:37.716Z,41.53
2019-05-19T02:43:08.858Z,40.13
2019-05-19T02:45:40.814Z,47.87
2019-05-19T02:48:14.597Z,43.83
2019-05-19T02:50:52.785Z,46.30
2019-05-19T02:53:24.158Z,50.10
2019-05-19T02:55:58.754Z,48.93
2019-05-19T02:58:33.102Z,48.17
2019-05-19T03:01:05.916Z,48.07
2019-05-19T03:03:37.895Z,47.70
2019-05-19T03:06:12.395Z,42.70
2019-05-19T03:08:44.885Z,49.10
2019-05-19T03:11:17.832Z,48.33
2019-05-19T03:13:49.290Z,47.13
2019-05-19T03:16:22.783Z,49.53
2019-05-19T03:18:55.031Z,45.80
2019-05-19T03:21:27.655Z,49.67
2019-05-19T03:23:59.605Z,46.90
2019-05-19T03:26:34.123Z,48.83
2019-05-19T03:29:07.400Z,47.30
2019-05-19T03:31:43.096Z,44.53
2019-05-19T03:34:16.712Z,47.60
2019-05-19T03:36:49.479Z,49.50
2019-05-19T03:39:23.694Z,48.30
2019-05-19T03:41:58.158Z,43.23
2019-05-19T03:44:29.708Z,50.67
2019-05-19T03:47:02.295Z,49.97
2019-05-19T03:49:34.071Z,52.40
2019-05-19T03:52:06.776Z,46.03
2019-05-19T03:54:40.010Z,51.30
2019-05-19T03:57:12.725Z,49.03
2019-05-19T03:59:44.153Z,50.83
2019-05-19T04:02:16.756Z,44.97
2019-05-19T04:04:48.607Z,52.03
2019-05-19T04:07:21.549Z,49.23
2019-05-19T04:09:53.383Z,48.43
2019-05-19T04:12:26.178Z,44.27
2019-05-19T04:14:58.981Z,49.20
2019-05-19T04:17:31.721Z,49.67
2019-05-19T04:20:02.477Z,45.67
2019-05-19T04:22:35.126Z,50.30
2019-05-19T04:25:07.422Z,49.80
2019-05-19T04:27:39.915Z,50.00
2019-05-19T04:30:12.934Z,51.97
2019-05-19T04:32:44.814Z,49.30
2019-05-19T04:35:16.682Z,48.57
2019-05-19T04:37:49.156Z,47.37
2019-05-19T04:40:21.843Z,47.37
2019-05-19T04:42:54.692Z,44.43
2019-05-19T04:45:28.840Z,48.40
2019-05-19T04:48:03.040Z,47.17
2019-05-19T04:50:35.627Z,46.23
2019-05-19T04:53:07.169Z,45.57
2019-05-19T04:55:39.217Z,39.50
2019-05-19T04:58:11.967Z,44.63
2019-05-19T05:00:44.671Z,43.57
2019-05-19T05:03:16.386Z,45.43
2019-05-19T05:05:48.832Z,39.60
2019-05-19T05:08:29.511Z,43.27
2019-05-19T05:10:54.858Z,42.07
2019-05-19T05:13:27.556Z,45.27
2019-05-19T05:16:00.064Z,43.97
2019-05-19T05:18:33.873Z,44.60
2019-05-19T05:21:05.642Z,39.67
2019-05-19T05:23:38.367Z,41.70
2019-05-19T05:26:10.959Z,44.20
2019-05-19T05:28:43.157Z,44.27
2019-05-19T05:31:15.606Z,39.63
2019-05-19T05:33:47.696Z,45.67
2019-05-19T05:36:21.998Z,39.37
2019-05-19T05:38:53.755Z,45.20
2019-05-19T05:41:26.669Z,43.40
2019-05-19T05:43:58.437Z,38.17
2019-05-19T05:46:31.027Z,41.83
2019-05-19T05:49:04.261Z,43.07
2019-05-19T05:51:38.189Z,36.97
2019-05-19T05:54:10.268Z,40.73
2019-05-19T05:56:44.783Z,41.37
2019-05-19T05:59:16.731Z,42.53
2019-05-19T06:01:49.138Z,37.83
2019-05-19T06:04:20.566Z,41.60
2019-05-19T06:06:55.899Z,36.87
2019-05-19T06:09:28.662Z,42.03
2019-05-19T06:12:00.263Z,40.60
2019-05-19T06:14:33.701Z,39.50
2019-05-19T06:17:06.059Z,35.37
2019-05-19T06:19:37.825Z,39.90
2019-05-19T06:22:10.247Z,39.57
2019-05-19T06:24:42.944Z,40.67
2019-05-19T06:27:18.894Z,38.87
2019-05-19T06:29:50.614Z,39.73
2019-05-19T06:32:27.314Z,35.03
2019-05-19T06:35:00.034Z,39.27
2019-05-19T06:37:31.889Z,38.23
2019-05-19T06:40:04.467Z,38.17
2019-05-19T06:42:37.104Z,36.93
2019-05-19T06:45:11.281Z,37.63
2019-05-19T06:47:43.932Z,37.80
2019-05-19T06:50:17.470Z,32.43
2019-05-19T06:52:49.280Z,35.90
2019-05-19T06:55:20.722Z,34.83
2019-05-19T06:57:53.517Z,35.07
2019-05-19T07:00:25.469Z,34.20
2019-05-19T07:02:56.510Z,35.33
2019-05-19T07:05:29.438Z,31.20
2019-05-19T07:08:01.879Z,34.50
2019-05-19T07:10:34.234Z,31.70
2019-05-19T07:13:08.936Z,32.30
2019-05-19T07:15:40.451Z,31.57
2019-05-19T07:18:12.721Z,32.33
2019-05-19T07:20:45.409Z,28.77
2019-05-19T07:23:27.732Z,33.50
2019-05-19T07:25:52.108Z,31.47
2019-05-19T07:28:24.711Z,31.23
2019-05-19T07:30:57.226Z,32.63
2019-05-19T07:33:29.908Z,31.27
2019-05-19T07:36:04.492Z,30.73
2019-05-19T07:38:36.855Z,30.10
2019-05-19T07:41:08.351Z,30.70
2019-05-19T07:43:40.710Z,30.73
2019-05-19T07:46:14.835Z,31.30
2019-05-19T07:48:47.337Z,31.47
2019-05-19T07:51:21.450Z,29.93
2019-05-19T07:53:56.852Z,30.13
2019-05-19T07:56:29.668Z,28.43
2019-05-19T07:59:02.485Z,27.30
2019-05-19T08:01:36.642Z,26.87
2019-05-19T08:04:09.447Z,24.83
2019-05-19T08:06:43.018Z,24.93
2019-05-19T08:09:15.461Z,23.37
2019-05-19T08:11:47.224Z,24.10
2019-05-19T08:14:20.658Z,24.33
2019-05-19T08:16:54.054Z,24.87
2019-05-19T08:19:25.482Z,22.87
2019-05-19T08:21:57.876Z,22.93
2019-05-19T08:24:29.744Z,22.77
2019-05-19T08:27:01.495Z,22.03
2019-05-19T08:29:33.036Z,22.77
2019-05-19T08:32:05.745Z,19.97
2019-05-19T08:34:37.225Z,19.63
2019-05-19T08:37:08.547Z,18.93
2019-05-19T08:39:41.247Z,18.00
2019-05-19T08:42:13.716Z,18.00
2019-05-19T08:44:45.186Z,17.23
2019-05-19T08:47:18.102Z,16.00
2019-05-19T08:49:50.473Z,15.87
2019-05-19T08:52:22.127Z,15.90
2019-05-19T08:54:56.290Z,15.83
2019-05-19T08:57:28.822Z,14.27
2019-05-19T09:00:00.259Z,14.77
2019-05-19T09:02:31.986Z,13.60
2019-05-19T09:05:04.945Z,13.70
2019-05-19T09:07:37.459Z,14.50
2019-05-19T09:10:10.520Z,13.50
2019-05-19T09:12:43.071Z,12.10
2019-05-19T09:15:14.198Z,13.07
2019-05-19T09:17:48.879Z,12.70
2019-05-19T09:20:20.302Z,12.43
2019-05-19T09:22:52.083Z,12.00
2019-05-19T09:25:24.470Z,12.30
2019-05-19T09:27:57.054Z,13.33
2019-05-19T09:30:29.477Z,11.80
2019-05-19T09:33:03.159Z,11.23
2019-05-19T09:35:35.826Z,11.07
2019-05-19T09:38:07.484Z,10.97
2019-05-19T09:40:41.326Z,11.77
2019-05-19T09:43:15.437Z,11.10
2019-05-19T09:45:47.303Z,10.60
2019-05-19T09:48:20.116Z,11.23
2019-05-19T09:50:53.590Z,10.90
2019-05-19T09:53:25.463Z,10.30
2019-05-19T09:55:58.141Z,11.07
2019-05-19T09:58:30.842Z,10.03
2019-05-19T10:01:03.650Z,10.17
2019-05-19T10:03:35.278Z,10.73
2019-05-19T10:06:07.623Z,10.70
2019-05-19T10:08:40.444Z,10.87
2019-05-19T10:11:14.475Z,11.83
2019-05-19T10:13:49.988Z,10.40
2019-05-19T10:16:22.116Z,9.93
2019-05-19T10:18:54.481Z,9.10
2019-05-19T10:21:26.213Z,10.13
2019-05-19T10:23:57.370Z,9.60
2019-05-19T10:26:31.131Z,6.70
2019-05-19T10:29:03.606Z,6.40
2019-05-19T10:31:35.093Z,5.70
2019-05-19T10:34:06.414Z,6.10
2019-05-19T10:36:38.174Z,5.37
2019-05-19T10:39:09.737Z,5.50
2019-05-19T10:41:42.455Z,5.87
2019-05-19T10:44:17.783Z,7.23
2019-05-19T10:46:49.493Z,7.57
2019-05-19T10:49:21.950Z,6.83
2019-05-19T10:51:54.516Z,6.60
2019-05-19T10:54:26.307Z,5.57
2019-05-19T10:56:59.162Z,5.70
2019-05-19T10:59:31.846Z,5.80
2019-05-19T11:02:03.347Z,5.83
2019-05-19T11:04:36.761Z,6.30
2019-05-19T11:07:10.106Z,5.97
2019-05-19T11:09:42.627Z,5.90
2019-05-19T11:12:14.351Z,5.90
2019-05-19T11:14:47.175Z,6.13
2019-05-19T11:17:21.262Z,5.50
2019-05-19T11:19:53.927Z,6.07
2019-05-19T11:22:26.360Z,6.80
2019-05-19T11:24:58.079Z,5.90
2019-05-19T11:27:29.627Z,6.20
2019-05-19T11:30:03.715Z,6.07
2019-05-19T11:32:36.218Z,5.77
2019-05-19T11:35:10.591Z,6.43
2019-05-19T11:37:42.988Z,6.20
2019-05-19T11:40:15.742Z,5.70
2019-05-19T11:42:47.754Z,6.00
2019-05-19T11:45:20.198Z,6.07
2019-05-19T11:47:51.611Z,6.03
2019-05-19T11:50:25.620Z,5.73
2019-05-19T11:52:58.674Z,6.40
2019-05-19T11:55:31.150Z,7.77
2019-05-19T11:58:03.762Z,6.90
2019-05-19T12:00:36.186Z,6.40
2019-05-19T12:03:07.432Z,6.00
2019-05-19T12:05:39.298Z,6.27
2019-05-19T12:08:13.292Z,6.53
2019-05-19T12:10:46.026Z,6.40
2019-05-19T12:13:18.816Z,6.53
2019-05-19T12:15:52.067Z,5.50
2019-05-19T12:18:24.442Z,5.97
2019-05-19T12:20:56.193Z,5.80
2019-05-19T12:23:27.664Z,6.03
2019-05-19T12:25:59.540Z,5.93
2019-05-19T12:28:34.640Z,5.57
2019-05-19T12:31:07.343Z,5.53
2019-05-19T12:33:51.471Z,5.10
2019-05-19T12:36:16.327Z,4.67
2019-05-19T12:38:50.886Z,4.27
2019-05-19T12:41:22.838Z,4.90
2019-05-19T12:43:54.409Z,4.77
2019-05-19T12:46:27.086Z,5.27
2019-05-19T12:48:58.662Z,4.33
2019-05-19T12:51:30.419Z,5.03
2019-05-19T12:54:02.287Z,4.40
2019-05-19T12:56:39.459Z,4.57
2019-05-19T12:59:08.653Z,4.70
2019-05-19T13:01:41.482Z,4.67
2019-05-19T13:04:12.888Z,4.70
2019-05-19T13:06:47.491Z,5.00
2019-05-19T13:09:19.465Z,5.00
2019-05-19T13:11:53.075Z,5.30
2019-05-19T13:14:24.657Z,4.70
2019-05-19T13:16:58.419Z,4.77
2019-05-19T13:19:31.213Z,5.10
2019-05-19T13:22:05.910Z,4.67
2019-05-19T13:24:38.388Z,4.47
2019-05-19T13:27:10.971Z,5.10
2019-05-19T13:29:45.119Z,4.70
2019-05-19T13:32:17.838Z,4.07
2019-05-19T13:34:52.320Z,4.70
2019-05-19T13:37:24.193Z,4.87
2019-05-19T13:39:56.735Z,4.47
2019-05-19T13:42:30.588Z,4.60
2019-05-19T13:45:02.132Z,4.97
2019-05-19T13:47:34.613Z,5.50
2019-05-19T13:50:09.635Z,5.23
2019-05-19T13:52:41.596Z,4.30
2019-05-19T13:55:17.642Z,4.00
2019-05-19T13:57:49.445Z,4.20
2019-05-19T14:00:21.978Z,4.07
2019-05-19T14:02:54.710Z,4.30
2019-05-19T14:05:27.191Z,4.80
2019-05-19T14:07:59.902Z,4.57
2019-05-19T14:10:32.885Z,4.30
2019-05-19T14:13:07.088Z,4.87
2019-05-19T14:15:38.688Z,4.87
2019-05-19T14:18:10.434Z,4.60
2019-05-19T14:20:44.030Z,4.80
2019-05-19T14:23:14.773Z,4.53
2019-05-19T14:25:48.202Z,4.33
2019-05-19T14:28:20.606Z,4.00
2019-05-19T14:30:55.594Z,3.83
2019-05-19T14:33:28.399Z,3.60
2019-05-19T14:36:02.985Z,3.47
2019-05-19T14:38:34.941Z,2.80
2019-05-19T14:41:07.381Z,2.60
2019-05-19T14:43:39.727Z,2.80
2019-05-19T14:46:12.395Z,2.67
2019-05-19T14:48:44.262Z,2.60
2019-05-19T14:51:16.883Z,2.80
2019-05-19T14:53:48.311Z,2.70
2019-05-19T14:56:21.027Z,2.40
2019-05-19T14:58:52.926Z,2.70
2019-05-19T15:01:25.409Z,2.67
2019-05-19T15:03:59.156Z,2.77
2019-05-19T15:06:31.645Z,2.60
2019-05-19T15:09:05.721Z,2.60
2019-05-19T15:11:37.715Z,2.67
2019-05-19T15:14:10.102Z,2.10
2019-05-19T15:16:42.803Z,2.10
2019-05-19T15:19:15.411Z,2.20
2019-05-19T15:21:47.609Z,2.00
2019-05-19T15:24:19.552Z,2.10
2019-05-19T15:26:52.019Z,2.17
2019-05-19T15:29:24.742Z,2.03
2019-05-19T15:31:57.113Z,1.80
2019-05-19T15:34:29.890Z,2.00
2019-05-19T15:37:02.629Z,1.80
2019-05-19T15:39:34.594Z,2.00
2019-05-19T15:42:06.290Z,2.00
2019-05-19T15:44:38.647Z,1.93
2019-05-19T15:47:10.403Z,2.40
2019-05-19T15:49:42.284Z,2.10
2019-05-19T15:52:13.703Z,2.17
2019-05-19T15:54:45.322Z,2.60
2019-05-19T15:57:17.522Z,2.30
2019-05-19T15:59:50.834Z,2.10
2019-05-19T16:02:22.563Z,2.23
2019-05-19T16:04:54.374Z,2.30
2019-05-19T16:07:25.996Z,2.20
2019-05-19T16:09:58.371Z,2.30
2019-05-19T16:12:31.079Z,2.30
2019-05-19T16:15:02.950Z,2.50
2019-05-19T16:17:35.670Z,2.63
2019-05-19T16:20:07.422Z,2.10
2019-05-19T16:22:39.178Z,2.30
2019-05-19T16:25:11.776Z,2.20
2019-05-19T16:27:44.589Z,2.40
2019-05-19T16:30:15.783Z,2.40
2019-05-19T16:32:49.667Z,2.30
2019-05-19T16:35:22.068Z,2.40
2019-05-19T16:37:53.838Z,2.30
2019-05-19T16:40:25.698Z,2.10
2019-05-19T16:43:02.217Z,2.47
2019-05-19T16:45:33.745Z,2.30
2019-05-19T16:48:05.948Z,2.77
2019-05-19T16:50:38.272Z,2.80
2019-05-19T16:53:10.605Z,2.67
2019-05-19T16:55:42.338Z,2.20
2019-05-19T16:58:21.089Z,2.77
2019-05-19T17:00:47.743Z,2.60
2019-05-19T17:03:22.344Z,3.20
2019-05-19T17:05:56.825Z,3.03
2019-05-19T17:08:29.634Z,2.80
2019-05-19T17:11:02.115Z,2.63
2019-05-19T17:13:34.322Z,2.60
2019-05-19T17:16:06.210Z,2.90
2019-05-19T17:18:40.306Z,3.67
2019-05-19T17:21:13.030Z,4.73
2019-05-19T17:23:45.831Z,4.23
2019-05-19T17:26:17.702Z,5.83
2019-05-19T17:29:00.261Z,4.03
2019-05-19T17:31:24.910Z,4.23
2019-05-19T17:33:56.458Z,3.70
2019-05-19T17:36:28.658Z,2.97
2019-05-19T17:39:01.352Z,2.80
2019-05-19T17:41:33.697Z,2.80
2019-05-19T17:44:06.109Z,2.77
2019-05-19T17:46:37.771Z,2.60
2019-05-19T17:49:12.255Z,2.60
2019-05-19T17:51:43.735Z,2.70
2019-05-19T17:54:16.082Z,3.10
2019-05-19T17:56:50.971Z,3.50
2019-05-19T17:59:24.651Z,6.60
2019-05-19T18:01:58.218Z,6.13
2019-05-19T18:04:29.547Z,5.47
2019-05-19T18:07:02.046Z,3.50
2019-05-19T18:09:34.398Z,3.90
2019-05-19T18:12:08.686Z,3.67
2019-05-19T18:14:43.173Z,3.57
2019-05-19T18:17:15.679Z,4.17
2019-05-19T18:19:46.958Z,4.93
2019-05-19T18:22:21.663Z,6.03
2019-05-19T18:24:53.177Z,6.97
2019-05-19T18:27:24.823Z,6.70
2019-05-19T18:29:57.114Z,7.13
2019-05-19T18:32:32.930Z,7.20
2019-05-19T18:35:07.483Z,7.70
2019-05-19T18:37:40.607Z,10.70
2019-05-19T18:40:13.437Z,8.33
2019-05-19T18:42:45.390Z,8.50
2019-05-19T18:45:17.371Z,9.90
2019-05-19T18:47:49.982Z,8.50
2019-05-19T18:50:20.902Z,8.97
2019-05-19T18:52:52.375Z,10.10
2019-05-19T18:55:24.954Z,10.63
2019-05-19T18:57:59.236Z,10.83
2019-05-19T19:00:34.770Z,10.53
2019-05-19T19:03:07.899Z,11.33
2019-05-19T19:05:40.495Z,11.50
2019-05-19T19:08:12.347Z,12.20
2019-05-19T19:10:43.923Z,14.20
2019-05-19T19:13:15.647Z,12.73
2019-05-19T19:15:48.045Z,12.47
2019-05-19T19:18:19.815Z,13.00
2019-05-19T19:20:52.856Z,14.73
2019-05-19T19:23:24.528Z,14.90
2019-05-19T19:25:56.978Z,15.53
2019-05-19T19:28:28.398Z,13.80
2019-05-19T19:31:02.863Z,15.73
2019-05-19T19:33:36.651Z,14.70
2019-05-19T19:36:08.747Z,14.17
2019-05-19T19:38:40.296Z,12.90
2019-05-19T19:41:12.827Z,14.10
2019-05-19T19:43:45.529Z,13.63
2019-05-19T19:46:18.397Z,12.63
2019-05-19T19:48:50.250Z,14.70
2019-05-19T19:51:22.793Z,14.07
2019-05-19T19:53:55.443Z,14.60
2019-05-19T19:56:27.905Z,13.77
2019-05-19T19:59:02.357Z,14.50
2019-05-19T20:01:34.005Z,14.57
2019-05-19T20:04:05.746Z,13.70
2019-05-19T20:06:38.491Z,13.93
2019-05-19T20:09:11.710Z,14.33
2019-05-19T20:11:43.139Z,13.83
2019-05-19T20:14:17.227Z,14.43
2019-05-19T20:16:51.381Z,13.47
2019-05-19T20:19:24.376Z,11.17
2019-05-19T20:21:56.392Z,12.60
2019-05-19T20:24:28.738Z,12.00
2019-05-19T20:27:01.459Z,11.60
2019-05-19T20:29:33.934Z,12.13
2019-05-19T20:32:09.707Z,10.00
2019-05-19T20:34:42.603Z,8.83
2019-05-19T20:37:15.285Z,8.57
2019-05-19T20:39:47.054Z,7.53
2019-05-19T20:42:19.738Z,6.67
2019-05-19T20:44:52.279Z,6.80
2019-05-19T20:47:23.656Z,6.47
2019-05-19T20:49:56.195Z,8.03
2019-05-19T20:52:28.610Z,7.10
2019-05-19T20:55:00.359Z,9.10
2019-05-19T20:57:33.811Z,6.60
2019-05-19T21:00:08.610Z,8.10
2019-05-19T21:02:40.126Z,7.47
2019-05-19T21:05:11.081Z,7.03
2019-05-19T21:07:42.569Z,6.97
2019-05-19T21:10:14.402Z,7.07
2019-05-19T21:12:46.878Z,7.53
2019-05-19T21:15:19.395Z,7.27
2019-05-19T21:17:52.590Z,6.90
2019-05-19T21:20:24.181Z,7.00
2019-05-19T21:22:56.561Z,7.80
2019-05-19T21:25:28.930Z,7.70
2019-05-19T21:28:01.558Z,8.30
2019-05-19T21:30:33.090Z,6.90
2019-05-19T21:33:05.696Z,8.43
2019-05-19T21:35:37.268Z,7.43
2019-05-19T21:38:08.215Z,8.63
2019-05-19T21:40:39.827Z,7.10
2019-05-19T21:43:10.998Z,7.97
2019-05-19T21:45:41.777Z,8.90
2019-05-19T21:48:13.343Z,8.23
2019-05-19T21:50:44.324Z,8.43
2019-05-19T21:53:18.484Z,8.90
2019-05-19T21:55:50.212Z,8.20
2019-05-19T21:58:22.614Z,9.77
2019-05-19T22:00:54.973Z,7.80
2019-05-19T22:03:27.605Z,9.93
2019-05-19T22:05:59.434Z,10.33
2019-05-19T22:08:31.803Z,10.00
2019-05-19T22:11:04.773Z,8.87
2019-05-19T22:13:37.639Z,10.43
2019-05-19T22:16:13.332Z,10.37
2019-05-19T22:18:44.451Z,10.57
2019-05-19T22:21:16.795Z,10.80
2019-05-19T22:23:49.042Z,10.80
2019-05-19T22:26:20.467Z,10.47
2019-05-19T22:28:51.889Z,10.17
2019-05-19T22:31:36.229Z,10.60
2019-05-19T22:33:56.913Z,11.10
2019-05-19T22:36:28.344Z,9.83
2019-05-19T22:39:00.726Z,11.10
2019-05-19T22:41:33.147Z,10.90
2019-05-19T22:44:05.342Z,12.47
2019-05-19T22:46:37.786Z,9.60
2019-05-19T22:49:09.175Z,12.20
2019-05-19T22:51:41.730Z,11.63
2019-05-19T22:54:14.358Z,10.57
2019-05-19T22:56:46.822Z,11.73
2019-05-19T22:59:20.358Z,13.07
2019-05-19T23:01:52.319Z,12.83
2019-05-19T23:04:26.378Z,11.73
2019-05-19T23:06:57.902Z,12.67
2019-05-19T23:09:30.515Z,12.23
2019-05-19T23:12:02.941Z,12.60
2019-05-19T23:14:35.525Z,10.77
2019-05-19T23:17:07.970Z,13.40
2019-05-19T23:19:39.895Z,11.80
2019-05-19T23:22:11.491Z,13.53
2019-05-19T23:24:43.923Z,13.60
2019-05-19T23:27:18.357Z,12.37
2019-05-19T23:29:50.255Z,14.47
2019-05-19T23:32:21.854Z,12.03
2019-05-19T23:34:54.480Z,14.53
2019-05-19T23:37:26.323Z,14.73
2019-05-19T23:39:57.737Z,14.87
2019-05-19T23:42:30.595Z,13.83
2019-05-19T23:45:03.106Z,18.33
2019-05-19T23:47:37.035Z,18.67
2019-05-19T23:50:09.978Z,22.93
2019-05-19T23:52:41.368Z,24.37
2019-05-19T23:55:17.046Z,31.00
2019-05-19T23:57:51.102Z,27.77
